sensor_id;sensor_type;location;lat;lon;timestamp;temperature;humidity
23160;DHT22;11748;50.844;4.396;2023-04-16T00:00:11;9.40;99.90
23160;DHT22;11748;50.844;4.396;2023-04-16T00:02:37;9.50;99.90
23160;DHT22;11748;50.844;4.396;2023-04-16T00:05:03;9.60;99.90
23160;DHT22;11748;50.844;4.396;2023-04-16T00:07:29;9.70;99.90
23160;DHT22;11748;50.844;4.396;2023-04-16T00:09:55;9.50;99.90
23160;DHT22;11748;50.844;4.396;2023-04-16T00:12:22;9.60;99.90
23160;DHT22;11748;50.844;4.396;2023-04-16T00:14:48;9.50;99.90
23160;DHT22;11748;50.844;4.396;2023-04-16T00:17:14;9.40;99.90
23160;DHT22;11748;50.844;4.396;2023-04-16T00:19:40;9.50;99.90
23160;DHT22;11748;50.844;4.396;2023-04-16T00:22:06;9.50;99.90
23160;DHT22;11748;50.844;4.396;2023-04-16T00:24:32;9.30;99.90
23160;DHT22;11748;50.844;4.396;2023-04-16T00:26:58;9.40;99.90
23160;DHT22;11748;50.844;4.396;2023-04-16T00:29:24;9.50;99.90
23160;DHT22;11748;50.844;4.396;2023-04-16T00:31:51;9.50;99.90
23160;DHT22;11748;50.844;4.396;2023-04-16T00:34:17;9.40;99.90
23160;DHT22;11748;50.844;4.396;2023-04-16T00:36:43;9.40;99.90
23160;DHT22;11748;50.844;4.396;2023-04-16T00:39:09;9.40;99.90
23160;DHT22;11748;50.844;4.396;2023-04-16T00:41:34;9.30;99.90
23160;DHT22;11748;50.844;4.396;2023-04-16T00:44:00;9.30;99.90
23160;DHT22;11748;50.844;4.396;2023-04-16T00:46:26;9.30;99.90
23160;DHT22;11748;50.844;4.396;2023-04-16T00:48:52;9.40;99.90
23160;DHT22;11748;50.844;4.396;2023-04-16T00:51:18;9.50;99.90
23160;DHT22;11748;50.844;4.396;2023-04-16T00:53:46;9.50;99.90
23160;DHT22;11748;50.844;4.396;2023-04-16T00:56:12;9.50;99.90
23160;DHT22;11748;50.844;4.396;2023-04-16T00:58:38;9.40;99.90
23160;DHT22;11748;50.844;4.396;2023-04-16T01:01:04;9.50;99.90
23160;DHT22;11748;50.844;4.396;2023-04-16T01:03:46;9.60;99.90
23160;DHT22;11748;50.844;4.396;2023-04-16T01:06:12;9.50;99.90
23160;DHT22;11748;50.844;4.396;2023-04-16T01:08:39;9.60;99.90
23160;DHT22;11748;50.844;4.396;2023-04-16T01:11:05;9.60;99.90
23160;DHT22;11748;50.844;4.396;2023-04-16T01:13:31;9.60;99.90
23160;DHT22;11748;50.844;4.396;2023-04-16T01:15:58;9.50;99.90
23160;DHT22;11748;50.844;4.396;2023-04-16T01:18:25;9.40;99.90
23160;DHT22;11748;50.844;4.396;2023-04-16T01:20:51;9.40;99.90
23160;DHT22;11748;50.844;4.396;2023-04-16T01:23:17;9.20;99.90
23160;DHT22;11748;50.844;4.396;2023-04-16T01:25:46;9.20;99.90
23160;DHT22;11748;50.844;4.396;2023-04-16T01:28:12;9.30;99.90
23160;DHT22;11748;50.844;4.396;2023-04-16T01:30:39;9.40;99.90
23160;DHT22;11748;50.844;4.396;2023-04-16T01:33:05;9.40;99.90
23160;DHT22;11748;50.844;4.396;2023-04-16T01:35:31;9.30;99.90
23160;DHT22;11748;50.844;4.396;2023-04-16T01:37:57;9.30;99.90
23160;DHT22;11748;50.844;4.396;2023-04-16T01:40:22;9.40;99.90
23160;DHT22;11748;50.844;4.396;2023-04-16T01:42:48;9.20;99.90
23160;DHT22;11748;50.844;4.396;2023-04-16T01:45:15;9.20;99.90
23160;DHT22;11748;50.844;4.396;2023-04-16T01:47:41;9.30;99.90
23160;DHT22;11748;50.844;4.396;2023-04-16T01:50:07;9.20;99.90
23160;DHT22;11748;50.844;4.396;2023-04-16T01:52:33;9.20;99.90
23160;DHT22;11748;50.844;4.396;2023-04-16T01:54:59;9.20;99.90
23160;DHT22;11748;50.844;4.396;2023-04-16T01:57:24;9.30;99.90
23160;DHT22;11748;50.844;4.396;2023-04-16T01:59:50;9.30;99.90
23160;DHT22;11748;50.844;4.396;2023-04-16T02:02:16;9.20;99.90
23160;DHT22;11748;50.844;4.396;2023-04-16T02:04:44;9.20;99.90
23160;DHT22;11748;50.844;4.396;2023-04-16T02:07:11;9.30;99.90
23160;DHT22;11748;50.844;4.396;2023-04-16T02:09:38;9.30;99.90
23160;DHT22;11748;50.844;4.396;2023-04-16T02:12:04;9.40;99.90
23160;DHT22;11748;50.844;4.396;2023-04-16T02:14:31;9.50;99.90
23160;DHT22;11748;50.844;4.396;2023-04-16T02:16:57;9.50;99.90
23160;DHT22;11748;50.844;4.396;2023-04-16T02:19:23;9.40;99.90
23160;DHT22;11748;50.844;4.396;2023-04-16T02:21:50;9.40;99.90
23160;DHT22;11748;50.844;4.396;2023-04-16T02:24:16;9.40;99.90
23160;DHT22;11748;50.844;4.396;2023-04-16T02:26:42;9.30;99.90
23160;DHT22;11748;50.844;4.396;2023-04-16T02:29:08;9.30;99.90
23160;DHT22;11748;50.844;4.396;2023-04-16T02:31:34;9.30;99.90
23160;DHT22;11748;50.844;4.396;2023-04-16T02:34:00;9.40;99.90
23160;DHT22;11748;50.844;4.396;2023-04-16T02:36:26;9.50;99.90
23160;DHT22;11748;50.844;4.396;2023-04-16T02:38:52;9.50;99.90
23160;DHT22;11748;50.844;4.396;2023-04-16T02:41:17;9.40;99.90
23160;DHT22;11748;50.844;4.396;2023-04-16T02:43:43;9.40;99.90
23160;DHT22;11748;50.844;4.396;2023-04-16T02:46:09;9.30;99.90
23160;DHT22;11748;50.844;4.396;2023-04-16T02:48:34;9.40;99.90
23160;DHT22;11748;50.844;4.396;2023-04-16T02:51:00;9.40;99.90
23160;DHT22;11748;50.844;4.396;2023-04-16T02:53:26;9.40;99.90
23160;DHT22;11748;50.844;4.396;2023-04-16T02:55:53;9.50;99.90
23160;DHT22;11748;50.844;4.396;2023-04-16T02:58:20;9.40;99.90
23160;DHT22;11748;50.844;4.396;2023-04-16T03:00:46;9.40;99.90
23160;DHT22;11748;50.844;4.396;2023-04-16T03:03:12;9.50;99.90
23160;DHT22;11748;50.844;4.396;2023-04-16T03:05:38;9.60;99.90
23160;DHT22;11748;50.844;4.396;2023-04-16T03:08:04;9.50;99.90
23160;DHT22;11748;50.844;4.396;2023-04-16T03:10:29;9.60;99.90
23160;DHT22;11748;50.844;4.396;2023-04-16T03:12:55;9.60;99.90
23160;DHT22;11748;50.844;4.396;2023-04-16T03:15:21;9.50;99.90
23160;DHT22;11748;50.844;4.396;2023-04-16T03:17:47;9.50;99.90
23160;DHT22;11748;50.844;4.396;2023-04-16T03:20:12;9.60;99.90
23160;DHT22;11748;50.844;4.396;2023-04-16T03:22:39;9.70;99.90
23160;DHT22;11748;50.844;4.396;2023-04-16T03:25:06;9.60;99.90
23160;DHT22;11748;50.844;4.396;2023-04-16T03:27:32;9.60;99.90
23160;DHT22;11748;50.844;4.396;2023-04-16T03:29:58;9.50;99.90
23160;DHT22;11748;50.844;4.396;2023-04-16T03:32:24;9.50;99.90
23160;DHT22;11748;50.844;4.396;2023-04-16T03:34:50;9.40;99.90
23160;DHT22;11748;50.844;4.396;2023-04-16T03:37:15;9.50;99.90
23160;DHT22;11748;50.844;4.396;2023-04-16T03:39:41;9.40;99.90
23160;DHT22;11748;50.844;4.396;2023-04-16T03:42:07;9.40;99.90
23160;DHT22;11748;50.844;4.396;2023-04-16T03:44:32;9.40;99.90
23160;DHT22;11748;50.844;4.396;2023-04-16T03:46:58;9.40;99.90
23160;DHT22;11748;50.844;4.396;2023-04-16T03:49:24;9.30;99.90
23160;DHT22;11748;50.844;4.396;2023-04-16T03:51:50;9.20;99.90
23160;DHT22;11748;50.844;4.396;2023-04-16T03:54:16;9.30;99.90
23160;DHT22;11748;50.844;4.396;2023-04-16T03:56:42;9.30;99.90
23160;DHT22;11748;50.844;4.396;2023-04-16T03:59:08;9.50;99.90
23160;DHT22;11748;50.844;4.396;2023-04-16T04:01:34;9.50;99.90
23160;DHT22;11748;50.844;4.396;2023-04-16T04:03:59;9.60;99.90
23160;DHT22;11748;50.844;4.396;2023-04-16T04:06:26;9.40;99.90
23160;DHT22;11748;50.844;4.396;2023-04-16T04:08:52;9.30;99.90
23160;DHT22;11748;50.844;4.396;2023-04-16T04:11:18;9.10;99.90
23160;DHT22;11748;50.844;4.396;2023-04-16T04:13:43;9.10;99.90
23160;DHT22;11748;50.844;4.396;2023-04-16T04:16:09;9.10;99.90
23160;DHT22;11748;50.844;4.396;2023-04-16T04:18:35;9.10;99.90
23160;DHT22;11748;50.844;4.396;2023-04-16T04:21:07;9.10;99.90
23160;DHT22;11748;50.844;4.396;2023-04-16T04:23:36;9.10;99.90
23160;DHT22;11748;50.844;4.396;2023-04-16T04:26:02;9.00;99.90
23160;DHT22;11748;50.844;4.396;2023-04-16T04:28:30;9.00;99.90
23160;DHT22;11748;50.844;4.396;2023-04-16T04:30:59;8.90;99.90
23160;DHT22;11748;50.844;4.396;2023-04-16T04:33:26;8.90;99.90
23160;DHT22;11748;50.844;4.396;2023-04-16T04:35:52;8.90;99.90
23160;DHT22;11748;50.844;4.396;2023-04-16T04:38:18;8.80;99.90
23160;DHT22;11748;50.844;4.396;2023-04-16T04:40:46;8.90;99.90
23160;DHT22;11748;50.844;4.396;2023-04-16T04:43:12;8.90;99.90
23160;DHT22;11748;50.844;4.396;2023-04-16T04:45:38;8.90;99.90
23160;DHT22;11748;50.844;4.396;2023-04-16T04:48:04;8.80;99.90
23160;DHT22;11748;50.844;4.396;2023-04-16T04:50:30;8.80;99.90
23160;DHT22;11748;50.844;4.396;2023-04-16T04:52:55;8.90;99.90
23160;DHT22;11748;50.844;4.396;2023-04-16T04:55:21;8.80;99.90
23160;DHT22;11748;50.844;4.396;2023-04-16T04:57:48;8.70;99.90
23160;DHT22;11748;50.844;4.396;2023-04-16T05:00:14;8.80;99.90
23160;DHT22;11748;50.844;4.396;2023-04-16T05:02:40;8.80;99.90
23160;DHT22;11748;50.844;4.396;2023-04-16T05:05:06;8.90;99.90
23160;DHT22;11748;50.844;4.396;2023-04-16T05:07:32;8.90;99.90
23160;DHT22;11748;50.844;4.396;2023-04-16T05:09:57;8.80;99.90
23160;DHT22;11748;50.844;4.396;2023-04-16T05:12:23;8.70;99.90
23160;DHT22;11748;50.844;4.396;2023-04-16T05:14:49;8.80;99.90
23160;DHT22;11748;50.844;4.396;2023-04-16T05:17:14;8.80;99.90
23160;DHT22;11748;50.844;4.396;2023-04-16T05:19:40;8.80;99.90
23160;DHT22;11748;50.844;4.396;2023-04-16T05:22:06;8.90;99.90
23160;DHT22;11748;50.844;4.396;2023-04-16T05:24:32;9.00;99.90
23160;DHT22;11748;50.844;4.396;2023-04-16T05:26:58;9.00;99.90
23160;DHT22;11748;50.844;4.396;2023-04-16T05:29:23;9.00;99.90
23160;DHT22;11748;50.844;4.396;2023-04-16T05:31:49;9.10;99.90
23160;DHT22;11748;50.844;4.396;2023-04-16T05:34:15;9.20;99.90
23160;DHT22;11748;50.844;4.396;2023-04-16T05:36:41;9.20;99.90
23160;DHT22;11748;50.844;4.396;2023-04-16T05:39:07;9.20;99.90
23160;DHT22;11748;50.844;4.396;2023-04-16T05:41:33;9.30;99.90
23160;DHT22;11748;50.844;4.396;2023-04-16T05:43:59;9.20;99.90
23160;DHT22;11748;50.844;4.396;2023-04-16T05:46:25;9.30;99.90
23160;DHT22;11748;50.844;4.396;2023-04-16T05:48:51;9.30;99.90
23160;DHT22;11748;50.844;4.396;2023-04-16T05:51:16;9.40;99.90
23160;DHT22;11748;50.844;4.396;2023-04-16T05:53:42;9.30;99.90
23160;DHT22;11748;50.844;4.396;2023-04-16T05:56:08;9.30;99.90
23160;DHT22;11748;50.844;4.396;2023-04-16T05:58:34;9.40;99.90
23160;DHT22;11748;50.844;4.396;2023-04-16T06:01:00;9.50;99.90
23160;DHT22;11748;50.844;4.396;2023-04-16T06:03:26;9.50;99.90
23160;DHT22;11748;50.844;4.396;2023-04-16T06:05:52;9.40;99.90
23160;DHT22;11748;50.844;4.396;2023-04-16T06:08:18;9.40;99.90
23160;DHT22;11748;50.844;4.396;2023-04-16T06:10:47;9.40;99.90
23160;DHT22;11748;50.844;4.396;2023-04-16T06:13:12;9.30;99.90
23160;DHT22;11748;50.844;4.396;2023-04-16T06:15:38;9.10;99.90
23160;DHT22;11748;50.844;4.396;2023-04-16T06:18:04;9.10;99.90
23160;DHT22;11748;50.844;4.396;2023-04-16T06:20:30;9.20;99.90
23160;DHT22;11748;50.844;4.396;2023-04-16T06:22:56;9.20;99.90
23160;DHT22;11748;50.844;4.396;2023-04-16T06:25:22;9.10;99.90
23160;DHT22;11748;50.844;4.396;2023-04-16T06:27:47;9.10;99.90
23160;DHT22;11748;50.844;4.396;2023-04-16T06:30:14;9.10;99.90
23160;DHT22;11748;50.844;4.396;2023-04-16T06:32:41;9.10;99.90
23160;DHT22;11748;50.844;4.396;2023-04-16T06:35:07;9.10;99.90
23160;DHT22;11748;50.844;4.396;2023-04-16T06:37:33;9.00;99.90
23160;DHT22;11748;50.844;4.396;2023-04-16T06:39:58;9.10;99.90
23160;DHT22;11748;50.844;4.396;2023-04-16T06:42:24;9.00;99.90
23160;DHT22;11748;50.844;4.396;2023-04-16T06:44:50;9.00;99.90
23160;DHT22;11748;50.844;4.396;2023-04-16T06:47:16;9.00;99.90
23160;DHT22;11748;50.844;4.396;2023-04-16T06:49:41;9.20;99.90
23160;DHT22;11748;50.844;4.396;2023-04-16T06:52:07;9.10;99.90
23160;DHT22;11748;50.844;4.396;2023-04-16T06:54:33;9.20;99.90
23160;DHT22;11748;50.844;4.396;2023-04-16T06:56:58;9.20;99.90
23160;DHT22;11748;50.844;4.396;2023-04-16T06:59:24;9.20;99.90
23160;DHT22;11748;50.844;4.396;2023-04-16T07:01:51;9.20;99.90
23160;DHT22;11748;50.844;4.396;2023-04-16T07:04:17;9.20;99.90
23160;DHT22;11748;50.844;4.396;2023-04-16T07:06:42;9.20;99.90
23160;DHT22;11748;50.844;4.396;2023-04-16T07:09:08;9.20;99.90
23160;DHT22;11748;50.844;4.396;2023-04-16T07:11:34;9.20;99.90
23160;DHT22;11748;50.844;4.396;2023-04-16T07:14:00;9.10;99.90
23160;DHT22;11748;50.844;4.396;2023-04-16T07:16:26;9.10;99.90
23160;DHT22;11748;50.844;4.396;2023-04-16T07:18:51;9.20;99.90
23160;DHT22;11748;50.844;4.396;2023-04-16T07:21:17;9.10;99.90
23160;DHT22;11748;50.844;4.396;2023-04-16T07:23:43;9.00;99.90
23160;DHT22;11748;50.844;4.396;2023-04-16T07:26:08;9.00;99.90
23160;DHT22;11748;50.844;4.396;2023-04-16T07:28:35;9.00;99.90
23160;DHT22;11748;50.844;4.396;2023-04-16T07:31:02;9.10;99.90
23160;DHT22;11748;50.844;4.396;2023-04-16T07:33:28;9.10;99.90
23160;DHT22;11748;50.844;4.396;2023-04-16T07:35:53;9.10;99.90
23160;DHT22;11748;50.844;4.396;2023-04-16T07:38:19;9.20;99.90
23160;DHT22;11748;50.844;4.396;2023-04-16T07:40:45;9.20;99.90
23160;DHT22;11748;50.844;4.396;2023-04-16T07:43:10;9.20;99.90
23160;DHT22;11748;50.844;4.396;2023-04-16T07:45:36;9.30;99.90
23160;DHT22;11748;50.844;4.396;2023-04-16T07:48:02;9.30;99.90
23160;DHT22;11748;50.844;4.396;2023-04-16T07:50:27;9.50;99.90
23160;DHT22;11748;50.844;4.396;2023-04-16T07:52:53;9.50;99.90
23160;DHT22;11748;50.844;4.396;2023-04-16T07:55:19;9.60;99.90
23160;DHT22;11748;50.844;4.396;2023-04-16T07:57:45;9.60;99.90
23160;DHT22;11748;50.844;4.396;2023-04-16T08:00:11;9.50;99.90
23160;DHT22;11748;50.844;4.396;2023-04-16T08:02:37;9.60;99.90
23160;DHT22;11748;50.844;4.396;2023-04-16T08:05:02;9.70;99.90
23160;DHT22;11748;50.844;4.396;2023-04-16T08:07:28;9.80;99.90
23160;DHT22;11748;50.844;4.396;2023-04-16T08:09:54;9.80;99.90
23160;DHT22;11748;50.844;4.396;2023-04-16T08:12:20;9.80;99.90
23160;DHT22;11748;50.844;4.396;2023-04-16T08:14:46;9.90;99.90
23160;DHT22;11748;50.844;4.396;2023-04-16T08:17:14;9.80;99.90
23160;DHT22;11748;50.844;4.396;2023-04-16T08:19:41;9.80;99.90
23160;DHT22;11748;50.844;4.396;2023-04-16T08:22:08;9.80;99.90
23160;DHT22;11748;50.844;4.396;2023-04-16T08:24:33;9.80;99.90
23160;DHT22;11748;50.844;4.396;2023-04-16T08:26:59;9.90;99.90
23160;DHT22;11748;50.844;4.396;2023-04-16T08:29:25;9.90;99.90
23160;DHT22;11748;50.844;4.396;2023-04-16T08:31:52;9.80;99.90
23160;DHT22;11748;50.844;4.396;2023-04-16T08:34:18;9.80;99.90
23160;DHT22;11748;50.844;4.396;2023-04-16T08:36:44;9.90;99.90
23160;DHT22;11748;50.844;4.396;2023-04-16T08:39:10;9.90;99.90
23160;DHT22;11748;50.844;4.396;2023-04-16T08:41:41;9.90;99.90
23160;DHT22;11748;50.844;4.396;2023-04-16T08:44:08;9.90;99.90
23160;DHT22;11748;50.844;4.396;2023-04-16T08:46:36;9.80;99.90
23160;DHT22;11748;50.844;4.396;2023-04-16T08:49:06;9.90;99.90
23160;DHT22;11748;50.844;4.396;2023-04-16T08:51:35;9.80;99.90
23160;DHT22;11748;50.844;4.396;2023-04-16T08:54:13;9.70;99.90
23160;DHT22;11748;50.844;4.396;2023-04-16T08:56:44;9.90;99.90
23160;DHT22;11748;50.844;4.396;2023-04-16T08:59:11;9.80;99.90
23160;DHT22;11748;50.844;4.396;2023-04-16T09:01:37;9.80;99.90
23160;DHT22;11748;50.844;4.396;2023-04-16T09:04:06;9.80;99.90
23160;DHT22;11748;50.844;4.396;2023-04-16T09:06:33;9.80;99.90
23160;DHT22;11748;50.844;4.396;2023-04-16T09:08:59;9.80;99.90
23160;DHT22;11748;50.844;4.396;2023-04-16T09:11:29;9.80;99.90
23160;DHT22;11748;50.844;4.396;2023-04-16T09:13:55;9.90;99.90
23160;DHT22;11748;50.844;4.396;2023-04-16T09:16:22;9.90;99.90
23160;DHT22;11748;50.844;4.396;2023-04-16T09:18:50;9.90;99.90
23160;DHT22;11748;50.844;4.396;2023-04-16T09:21:16;10.00;99.90
23160;DHT22;11748;50.844;4.396;2023-04-16T09:23:42;10.00;99.90
23160;DHT22;11748;50.844;4.396;2023-04-16T09:26:08;10.00;99.90
23160;DHT22;11748;50.844;4.396;2023-04-16T09:28:41;10.00;99.90
23160;DHT22;11748;50.844;4.396;2023-04-16T09:31:09;10.00;99.90
23160;DHT22;11748;50.844;4.396;2023-04-16T09:33:35;9.90;99.90
23160;DHT22;11748;50.844;4.396;2023-04-16T09:36:01;10.10;99.90
23160;DHT22;11748;50.844;4.396;2023-04-16T09:38:45;10.20;99.90
23160;DHT22;11748;50.844;4.396;2023-04-16T09:41:12;10.30;99.90
23160;DHT22;11748;50.844;4.396;2023-04-16T09:43:41;10.30;99.90
23160;DHT22;11748;50.844;4.396;2023-04-16T09:46:13;10.20;99.90
23160;DHT22;11748;50.844;4.396;2023-04-16T09:48:39;10.30;99.90
23160;DHT22;11748;50.844;4.396;2023-04-16T09:51:05;10.30;99.90
23160;DHT22;11748;50.844;4.396;2023-04-16T09:53:31;10.30;99.90
23160;DHT22;11748;50.844;4.396;2023-04-16T09:56:01;10.30;99.90
23160;DHT22;11748;50.844;4.396;2023-04-16T09:58:27;10.40;99.90
23160;DHT22;11748;50.844;4.396;2023-04-16T10:01:01;10.30;99.90
23160;DHT22;11748;50.844;4.396;2023-04-16T10:03:31;10.30;99.90
23160;DHT22;11748;50.844;4.396;2023-04-16T10:06:16;10.20;99.90
23160;DHT22;11748;50.844;4.396;2023-04-16T10:08:48;10.20;99.90
23160;DHT22;11748;50.844;4.396;2023-04-16T10:11:15;10.10;99.90
23160;DHT22;11748;50.844;4.396;2023-04-16T10:13:41;10.10;99.90
23160;DHT22;11748;50.844;4.396;2023-04-16T10:16:07;10.10;99.90
23160;DHT22;11748;50.844;4.396;2023-04-16T10:18:35;10.10;99.90
23160;DHT22;11748;50.844;4.396;2023-04-16T10:21:03;10.20;99.90
23160;DHT22;11748;50.844;4.396;2023-04-16T10:23:29;10.10;99.90
23160;DHT22;11748;50.844;4.396;2023-04-16T10:25:56;9.90;99.90
23160;DHT22;11748;50.844;4.396;2023-04-16T10:28:23;9.80;99.90
23160;DHT22;11748;50.844;4.396;2023-04-16T10:30:50;9.80;99.90
23160;DHT22;11748;50.844;4.396;2023-04-16T10:33:21;9.90;99.90
23160;DHT22;11748;50.844;4.396;2023-04-16T10:35:49;9.90;99.90
23160;DHT22;11748;50.844;4.396;2023-04-16T10:38:23;9.90;99.90
23160;DHT22;11748;50.844;4.396;2023-04-16T10:40:49;9.80;99.90
23160;DHT22;11748;50.844;4.396;2023-04-16T10:43:18;9.80;99.90
23160;DHT22;11748;50.844;4.396;2023-04-16T10:45:46;9.80;99.90
23160;DHT22;11748;50.844;4.396;2023-04-16T10:48:13;9.90;99.90
23160;DHT22;11748;50.844;4.396;2023-04-16T10:50:41;10.00;99.90
23160;DHT22;11748;50.844;4.396;2023-04-16T10:53:25;10.00;99.90
23160;DHT22;11748;50.844;4.396;2023-04-16T10:58:34;9.80;99.90
23160;DHT22;11748;50.844;4.396;2023-04-16T11:01:11;9.80;99.90
23160;DHT22;11748;50.844;4.396;2023-04-16T11:03:42;9.80;99.90
23160;DHT22;11748;50.844;4.396;2023-04-16T11:06:16;9.80;99.90
23160;DHT22;11748;50.844;4.396;2023-04-16T11:08:45;10.00;99.90
23160;DHT22;11748;50.844;4.396;2023-04-16T11:11:11;10.00;99.90
23160;DHT22;11748;50.844;4.396;2023-04-16T11:13:38;10.10;99.90
23160;DHT22;11748;50.844;4.396;2023-04-16T11:16:06;10.00;99.90
23160;DHT22;11748;50.844;4.396;2023-04-16T11:18:33;10.20;99.90
23160;DHT22;11748;50.844;4.396;2023-04-16T11:20:59;10.30;99.90
23160;DHT22;11748;50.844;4.396;2023-04-16T11:23:25;10.40;99.90
23160;DHT22;11748;50.844;4.396;2023-04-16T11:25:51;10.50;99.90
23160;DHT22;11748;50.844;4.396;2023-04-16T11:28:41;10.60;99.90
23160;DHT22;11748;50.844;4.396;2023-04-16T11:31:10;10.60;99.90
23160;DHT22;11748;50.844;4.396;2023-04-16T11:33:37;10.60;99.90
23160;DHT22;11748;50.844;4.396;2023-04-16T11:36:04;10.60;99.90
23160;DHT22;11748;50.844;4.396;2023-04-16T11:38:37;10.60;99.90
23160;DHT22;11748;50.844;4.396;2023-04-16T11:41:05;10.60;99.90
23160;DHT22;11748;50.844;4.396;2023-04-16T11:43:31;10.50;99.90
23160;DHT22;11748;50.844;4.396;2023-04-16T11:46:04;10.50;99.90
23160;DHT22;11748;50.844;4.396;2023-04-16T11:48:51;10.60;99.90
23160;DHT22;11748;50.844;4.396;2023-04-16T11:51:17;10.60;99.90
23160;DHT22;11748;50.844;4.396;2023-04-16T11:53:53;10.70;99.90
23160;DHT22;11748;50.844;4.396;2023-04-16T11:56:31;10.60;99.90
23160;DHT22;11748;50.844;4.396;2023-04-16T11:59:17;10.60;99.90
23160;DHT22;11748;50.844;4.396;2023-04-16T12:01:50;10.60;99.90
23160;DHT22;11748;50.844;4.396;2023-04-16T12:04:20;10.70;99.90
23160;DHT22;11748;50.844;4.396;2023-04-16T12:07:12;10.60;99.90
23160;DHT22;11748;50.844;4.396;2023-04-16T12:09:41;10.60;99.90
23160;DHT22;11748;50.844;4.396;2023-04-16T12:12:29;10.60;99.90
23160;DHT22;11748;50.844;4.396;2023-04-16T12:14:55;10.70;99.90
23160;DHT22;11748;50.844;4.396;2023-04-16T12:17:24;10.70;99.90
23160;DHT22;11748;50.844;4.396;2023-04-16T12:20:10;10.70;99.90
23160;DHT22;11748;50.844;4.396;2023-04-16T12:22:38;10.70;99.90
23160;DHT22;11748;50.844;4.396;2023-04-16T12:25:06;10.70;99.90
23160;DHT22;11748;50.844;4.396;2023-04-16T12:27:53;10.80;99.90
23160;DHT22;11748;50.844;4.396;2023-04-16T12:30:21;10.90;99.90
23160;DHT22;11748;50.844;4.396;2023-04-16T12:32:49;10.90;99.90
23160;DHT22;11748;50.844;4.396;2023-04-16T12:35:32;10.90;99.90
23160;DHT22;11748;50.844;4.396;2023-04-16T12:37:58;10.90;99.90
23160;DHT22;11748;50.844;4.396;2023-04-16T12:40:24;10.90;99.90
23160;DHT22;11748;50.844;4.396;2023-04-16T12:42:50;11.10;99.90
23160;DHT22;11748;50.844;4.396;2023-04-16T12:45:16;11.10;99.90
23160;DHT22;11748;50.844;4.396;2023-04-16T12:47:42;11.10;99.90
23160;DHT22;11748;50.844;4.396;2023-04-16T12:50:08;11.10;99.90
23160;DHT22;11748;50.844;4.396;2023-04-16T12:52:33;11.20;99.90
23160;DHT22;11748;50.844;4.396;2023-04-16T12:55:03;11.10;99.90
23160;DHT22;11748;50.844;4.396;2023-04-16T12:57:29;11.00;99.90
23160;DHT22;11748;50.844;4.396;2023-04-16T12:59:55;10.90;99.90
23160;DHT22;11748;50.844;4.396;2023-04-16T13:02:24;11.00;99.90
23160;DHT22;11748;50.844;4.396;2023-04-16T13:04:50;11.00;99.90
23160;DHT22;11748;50.844;4.396;2023-04-16T13:07:17;10.90;99.90
23160;DHT22;11748;50.844;4.396;2023-04-16T13:09:43;10.80;99.90
23160;DHT22;11748;50.844;4.396;2023-04-16T13:12:09;10.90;99.90
23160;DHT22;11748;50.844;4.396;2023-04-16T13:14:35;11.00;99.90
23160;DHT22;11748;50.844;4.396;2023-04-16T13:17:01;11.00;99.90
23160;DHT22;11748;50.844;4.396;2023-04-16T13:19:28;11.10;99.90
23160;DHT22;11748;50.844;4.396;2023-04-16T13:21:54;11.20;99.90
23160;DHT22;11748;50.844;4.396;2023-04-16T13:24:20;11.30;99.90
23160;DHT22;11748;50.844;4.396;2023-04-16T13:26:46;11.40;99.90
23160;DHT22;11748;50.844;4.396;2023-04-16T13:29:11;11.30;99.90
23160;DHT22;11748;50.844;4.396;2023-04-16T13:31:37;11.30;99.90
23160;DHT22;11748;50.844;4.396;2023-04-16T13:34:03;11.30;99.90
23160;DHT22;11748;50.844;4.396;2023-04-16T13:36:29;11.30;99.90
23160;DHT22;11748;50.844;4.396;2023-04-16T13:38:57;11.20;99.90
23160;DHT22;11748;50.844;4.396;2023-04-16T13:41:23;11.20;99.90
23160;DHT22;11748;50.844;4.396;2023-04-16T13:43:48;11.30;99.90
23160;DHT22;11748;50.844;4.396;2023-04-16T13:46:14;11.30;99.90
23160;DHT22;11748;50.844;4.396;2023-04-16T13:48:40;11.20;99.90
23160;DHT22;11748;50.844;4.396;2023-04-16T13:51:06;11.30;99.90
23160;DHT22;11748;50.844;4.396;2023-04-16T13:53:33;11.40;99.90
23160;DHT22;11748;50.844;4.396;2023-04-16T13:55:59;11.40;99.90
23160;DHT22;11748;50.844;4.396;2023-04-16T13:58:25;11.50;99.90
23160;DHT22;11748;50.844;4.396;2023-04-16T14:00:50;11.40;99.90
23160;DHT22;11748;50.844;4.396;2023-04-16T14:03:16;11.40;99.90
23160;DHT22;11748;50.844;4.396;2023-04-16T14:05:42;11.50;99.90
23160;DHT22;11748;50.844;4.396;2023-04-16T14:08:08;11.40;99.90
23160;DHT22;11748;50.844;4.396;2023-04-16T14:10:34;11.40;99.90
23160;DHT22;11748;50.844;4.396;2023-04-16T14:13:00;11.50;99.90
23160;DHT22;11748;50.844;4.396;2023-04-16T14:15:26;11.60;99.90
23160;DHT22;11748;50.844;4.396;2023-04-16T14:17:54;11.70;99.90
23160;DHT22;11748;50.844;4.396;2023-04-16T14:20:20;11.60;99.90
23160;DHT22;11748;50.844;4.396;2023-04-16T14:22:46;11.60;99.90
23160;DHT22;11748;50.844;4.396;2023-04-16T14:25:11;11.70;99.90
23160;DHT22;11748;50.844;4.396;2023-04-16T14:27:38;12.20;99.90
23160;DHT22;11748;50.844;4.396;2023-04-16T14:30:06;12.40;99.90
23160;DHT22;11748;50.844;4.396;2023-04-16T14:32:31;12.70;99.90
23160;DHT22;11748;50.844;4.396;2023-04-16T14:34:57;12.80;99.90
23160;DHT22;11748;50.844;4.396;2023-04-16T14:37:24;12.80;99.90
23160;DHT22;11748;50.844;4.396;2023-04-16T14:39:51;12.80;99.90
23160;DHT22;11748;50.844;4.396;2023-04-16T14:42:16;12.70;99.90
23160;DHT22;11748;50.844;4.396;2023-04-16T14:44:42;12.60;99.90
23160;DHT22;11748;50.844;4.396;2023-04-16T14:47:07;12.40;99.90
23160;DHT22;11748;50.844;4.396;2023-04-16T14:49:34;12.30;99.90
23160;DHT22;11748;50.844;4.396;2023-04-16T14:52:00;12.40;99.90
23160;DHT22;11748;50.844;4.396;2023-04-16T14:54:27;12.40;99.90
23160;DHT22;11748;50.844;4.396;2023-04-16T14:56:53;12.50;99.90
23160;DHT22;11748;50.844;4.396;2023-04-16T14:59:18;12.40;99.90
23160;DHT22;11748;50.844;4.396;2023-04-16T15:01:44;12.40;99.90
23160;DHT22;11748;50.844;4.396;2023-04-16T15:04:10;12.10;99.90
23160;DHT22;11748;50.844;4.396;2023-04-16T15:06:36;12.00;99.90
23160;DHT22;11748;50.844;4.396;2023-04-16T15:09:02;11.80;99.90
23160;DHT22;11748;50.844;4.396;2023-04-16T15:11:28;11.90;99.90
23160;DHT22;11748;50.844;4.396;2023-04-16T15:13:55;12.00;99.90
23160;DHT22;11748;50.844;4.396;2023-04-16T15:16:21;12.10;99.90
23160;DHT22;11748;50.844;4.396;2023-04-16T15:18:48;12.00;99.90
23160;DHT22;11748;50.844;4.396;2023-04-16T15:21:15;11.80;99.90
23160;DHT22;11748;50.844;4.396;2023-04-16T15:23:40;11.90;99.90
23160;DHT22;11748;50.844;4.396;2023-04-16T15:26:06;11.80;99.90
23160;DHT22;11748;50.844;4.396;2023-04-16T15:28:32;11.80;99.90
23160;DHT22;11748;50.844;4.396;2023-04-16T15:30:58;11.70;99.90
23160;DHT22;11748;50.844;4.396;2023-04-16T15:33:23;11.70;99.90
23160;DHT22;11748;50.844;4.396;2023-04-16T15:35:50;11.70;99.90
23160;DHT22;11748;50.844;4.396;2023-04-16T15:38:17;11.90;99.90
23160;DHT22;11748;50.844;4.396;2023-04-16T15:40:43;12.00;99.90